createdAt,value
2022-10-28T00:07:46.085Z,17.1
2022-10-28T00:22:20.417Z,17.1
2022-10-28T00:37:01.265Z,17
2022-10-28T00:51:39.031Z,17.2
2022-10-28T01:06:16.570Z,17.2
2022-10-28T01:20:48.223Z,17.2
2022-10-28T01:35:21.917Z,17.2
2022-10-28T01:49:56.761Z,17.1
2022-10-28T02:04:31.690Z,17.2
2022-10-28T02:19:07.158Z,17.3
2022-10-28T02:33:48.571Z,17.1
2022-10-28T02:48:24.842Z,17.2
2022-10-28T03:02:55.551Z,17
2022-10-28T03:17:30.597Z,17.2
2022-10-28T03:32:03.635Z,17.2
2022-10-28T03:46:37.848Z,17.1
2022-10-28T04:01:11.586Z,16.9
2022-10-28T04:15:45.813Z,16.6
2022-10-28T04:30:26.101Z,16.4
2022-10-28T04:45:04.725Z,16.4
2022-10-28T04:59:34.752Z,16.2
2022-10-28T05:14:09.278Z,16
2022-10-28T05:28:44.960Z,15.9
2022-10-28T05:43:18.251Z,15.9
2022-10-28T05:57:58.970Z,15.3
2022-10-28T06:27:04.931Z,15.5
2022-10-28T06:41:40.868Z,15.8
2022-10-28T06:56:18.496Z,16.2
2022-10-28T07:10:53.511Z,16.3
2022-10-28T07:25:28.831Z,16.7
2022-10-28T07:40:04.616Z,16.8
2022-10-28T07:54:38.118Z,17
2022-10-28T08:09:12.021Z,17
2022-10-28T08:23:48.552Z,18.2
2022-10-28T08:38:25.715Z,18.5
2022-10-28T08:53:01.176Z,18.7
2022-10-28T09:07:42.560Z,19.1
2022-10-28T09:22:21.419Z,19.9
2022-10-28T09:36:57.568Z,20.5
2022-10-28T09:51:31.498Z,20.3
2022-10-28T10:06:06.011Z,20.5
2022-10-28T10:20:42.063Z,20.9
2022-10-28T10:35:16.909Z,21.2
2022-10-28T10:49:52.424Z,21.6
2022-10-28T11:04:28.202Z,21.9
2022-10-28T11:19:03.469Z,22
2022-10-28T11:33:39.288Z,22.1
2022-10-28T11:48:13.175Z,22.5
2022-10-28T12:02:56.313Z,22.8
2022-10-28T12:17:32.067Z,22.8
2022-10-28T12:32:02.994Z,22.9
2022-10-28T12:46:38.703Z,23
2022-10-28T13:01:14.405Z,23.1
2022-10-28T13:15:50.558Z,23.3
2022-10-28T13:30:24.757Z,23.1
2022-10-28T13:45:00.299Z,23.2
2022-10-28T13:59:35.112Z,22.8
2022-10-28T14:14:09.458Z,22.9
2022-10-28T14:28:44.414Z,22.7
2022-10-28T14:43:19.432Z,22.4
2022-10-28T14:57:58.451Z,22
2022-10-28T15:12:35.621Z,22
2022-10-28T15:27:07.364Z,21.9
2022-10-28T15:41:41.623Z,21.8
2022-10-28T15:56:15.042Z,21.1
2022-10-28T16:10:49.387Z,21.1
2022-10-28T16:25:28.751Z,20.7
2022-10-28T16:40:07.262Z,20.7
2022-10-28T16:55:13.111Z,20.5
2022-10-28T17:09:50.764Z,20
2022-10-28T17:24:23.998Z,19.2
2022-10-28T17:38:55.845Z,19.3
2022-10-28T17:53:29.778Z,19
2022-10-28T18:08:04.680Z,18.8
2022-10-28T18:22:48.468Z,18.2
2022-10-28T18:37:23.557Z,18.1
2022-10-28T18:51:54.809Z,18
2022-10-28T19:06:28.457Z,18
2022-10-28T19:21:03.254Z,17.8
2022-10-28T19:35:35.609Z,17.1
2022-10-28T19:50:11.145Z,17.6
2022-10-28T20:04:47.482Z,16.8
2022-10-28T20:19:25.440Z,16.5
2022-10-28T20:34:01.764Z,16.1
2022-10-28T20:48:33.637Z,16.9
2022-10-28T21:03:08.900Z,16.2
2022-10-28T21:17:42.794Z,16.2
2022-10-28T21:32:17.053Z,16.5
2022-10-28T21:46:50.865Z,15.4
2022-10-28T22:01:31.096Z,15.4
2022-10-28T22:16:08.501Z,15.6
2022-10-28T22:30:39.049Z,15.9
2022-10-28T22:45:13.645Z,15.5
2022-10-28T22:59:53.767Z,14.9
2022-10-28T23:14:26.161Z,15.4
2022-10-28T23:29:06.374Z,14.6
2022-10-28T23:43:36.488Z,14.6
2022-10-28T23:58:12.184Z,14.6
